Sunday, January 21, 2018, 3:40 PM EST
Back to Local

KVAY, Mt Holly South Jersey Rgnl

Location: Medford, NJ, United States Lat: 39.933
Local Time: 3:40 PM EST (20:40 GMT) Lon: -74.833
Time Zone: US/Eastern Elev: 52 ft

Show me the last for .
Show Coded

Time T Td Feel RH Dir Speed Gust Alt SLP Vis Weather Sky Remarks
2018-01-21 15:18 51 38 - 60 240° 3 - 30.16 - 10 FEW027 OVC034 None
2018-01-21 14:54 51 37 - 58 250° 5 - 30.16 30.16 10 BKN027 OVC040 None
2018-01-21 14:34 51 37 - 58 - Calm - 30.15 - 10 BKN029 OVC041 None
2018-01-21 13:54 51 36 - 56 270° 6 - 30.15 30.16 10 OVC034 None
2018-01-21 12:54 50 36 47 58 Variable 7 - 30.17 30.17 10 OVC037 6-hr Min Temp (1pm): 28.0°F
6-hr Max Temp (1pm): 52.0°F
2018-01-21 11:54 50 35 46 56 310° 9 - 30.20 30.19 10 BKN036 None
2018-01-21 10:54 50 36 46 58 330° 9 - 30.21 30.21 10 CLR None
2018-01-21 09:54 46 34 45 62 Variable 3 - 30.21 30.21 10 CLR None
2018-01-21 08:54 38 33 - 82 - Calm - 30.20 30.20 10 CLR None
2018-01-21 07:54 29 28 - 96 - Calm - 30.18 30.18 10 CLR None
2018-01-21 06:54 31 28 - 88 - Calm - 30.17 30.17 10 CLR 6-hr Min Temp (7am): 27.0°F
6-hr Max Temp (7am): 30.9°F
2018-01-21 05:54 28 26 24 92 270° 3 - 30.15 30.15 10 CLR None
2018-01-21 04:54 28 26 - 92 - Calm - 30.13 30.13 10 CLR None
2018-01-21 03:54 28 26 24 92 210° 3 - 30.12 30.11 10 CLR None
2018-01-21 02:54 29 26 - 88 - Calm - 30.11 30.11 10 CLR None
2018-01-21 01:54 29 27 - 92 - Calm - 30.10 30.10 10 CLR None
2018-01-21 00:54 29 27 - 92 - Calm - 30.09 30.09 10 CLR 6-hr Min Temp (1am): 28.9°F
6-hr Max Temp (1am): 45.0°F
2018-01-20 23:54 30 27 - 88 - Calm - 30.09 30.09 10 CLR 24-hr Min Temp (12am): 27.0°F
24-hr Max Temp (12am): 55.0°F
2018-01-20 22:54 32 28 - 85 - Calm - 30.08 30.08 10 CLR None
2018-01-20 21:54 35 28 - 75 - Calm - 30.06 30.06 10 CLR None
2018-01-20 20:54 40 29 - 64 - Calm - 30.05 30.05 10 CLR None
2018-01-20 19:54 41 29 38 61 270° 5 - 30.04 30.04 10 CLR None
2018-01-20 18:54 45 29 43 53 260° 5 - 30.02 30.02 10 CLR 6-hr Min Temp (7pm): 45.0°F
6-hr Max Temp (7pm): 55.0°F
2018-01-20 17:54 50 29 48 43 300° 6 - 29.99 29.99 10 CLR None
2018-01-20 16:54 52 29 - 40 270° 8 - 29.97 29.97 10 CLR None
2018-01-20 15:54 54 29 - 38 270° 12 22 29.94 29.94 10 CLR None

Support USWX by starting your Amazon purchase here.